sensor_id;sensor_type;location;lat;lon;timestamp;temperature;humidity
9965;DHT22;5023;53.554;9.964;2023-04-25T00:02:10;8.30;99.90
9965;DHT22;5023;53.554;9.964;2023-04-25T00:07:14;8.30;99.90
9965;DHT22;5023;53.554;9.964;2023-04-25T00:12:16;8.30;99.90
9965;DHT22;5023;53.554;9.964;2023-04-25T00:17:18;8.30;99.90
9965;DHT22;5023;53.554;9.964;2023-04-25T00:22:21;8.30;99.90
9965;DHT22;5023;53.554;9.964;2023-04-25T00:27:23;8.30;99.90
9965;DHT22;5023;53.554;9.964;2023-04-25T00:32:25;8.20;99.90
9965;DHT22;5023;53.554;9.964;2023-04-25T00:37:28;8.20;99.90
9965;DHT22;5023;53.554;9.964;2023-04-25T00:42:31;8.10;99.90
9965;DHT22;5023;53.554;9.964;2023-04-25T00:47:33;8.20;99.90
9965;DHT22;5023;53.554;9.964;2023-04-25T00:52:37;8.20;99.90
9965;DHT22;5023;53.554;9.964;2023-04-25T00:57:42;8.10;99.90
9965;DHT22;5023;53.554;9.964;2023-04-25T01:02:44;8.10;99.90
9965;DHT22;5023;53.554;9.964;2023-04-25T01:07:48;8.20;99.90
9965;DHT22;5023;53.554;9.964;2023-04-25T01:12:50;8.10;99.90
9965;DHT22;5023;53.554;9.964;2023-04-25T01:17:52;8.10;99.90
9965;DHT22;5023;53.554;9.964;2023-04-25T01:22:57;8.10;99.90
9965;DHT22;5023;53.554;9.964;2023-04-25T01:27:59;8.00;99.90
9965;DHT22;5023;53.554;9.964;2023-04-25T01:33:01;8.00;99.90
9965;DHT22;5023;53.554;9.964;2023-04-25T01:38:06;7.90;99.90
9965;DHT22;5023;53.554;9.964;2023-04-25T01:43:08;7.90;99.90
9965;DHT22;5023;53.554;9.964;2023-04-25T01:48:12;7.80;99.90
9965;DHT22;5023;53.554;9.964;2023-04-25T01:53:16;7.70;99.90
9965;DHT22;5023;53.554;9.964;2023-04-25T01:58:18;7.70;99.90
9965;DHT22;5023;53.554;9.964;2023-04-25T02:03:20;7.70;99.90
9965;DHT22;5023;53.554;9.964;2023-04-25T02:08:23;7.70;99.90
9965;DHT22;5023;53.554;9.964;2023-04-25T02:13:26;7.60;99.90
9965;DHT22;5023;53.554;9.964;2023-04-25T02:18:28;7.60;99.90
9965;DHT22;5023;53.554;9.964;2023-04-25T02:23:32;7.60;99.90
9965;DHT22;5023;53.554;9.964;2023-04-25T02:28:34;7.60;99.90
9965;DHT22;5023;53.554;9.964;2023-04-25T02:33:35;7.60;99.90
9965;DHT22;5023;53.554;9.964;2023-04-25T02:38:39;7.60;99.90
9965;DHT22;5023;53.554;9.964;2023-04-25T02:43:41;7.50;99.90
9965;DHT22;5023;53.554;9.964;2023-04-25T02:48:43;7.50;99.90
9965;DHT22;5023;53.554;9.964;2023-04-25T02:53:46;7.50;99.90
9965;DHT22;5023;53.554;9.964;2023-04-25T02:58:48;7.40;99.90
9965;DHT22;5023;53.554;9.964;2023-04-25T03:03:50;7.50;99.90
9965;DHT22;5023;53.554;9.964;2023-04-25T03:08:53;7.50;99.90
9965;DHT22;5023;53.554;9.964;2023-04-25T03:13:55;7.40;99.90
9965;DHT22;5023;53.554;9.964;2023-04-25T03:18:57;7.30;99.90
9965;DHT22;5023;53.554;9.964;2023-04-25T03:24:03;7.20;99.90
9965;DHT22;5023;53.554;9.964;2023-04-25T03:29:05;7.20;99.90
9965;DHT22;5023;53.554;9.964;2023-04-25T03:34:07;7.10;99.90
9965;DHT22;5023;53.554;9.964;2023-04-25T03:39:10;7.00;99.90
9965;DHT22;5023;53.554;9.964;2023-04-25T03:44:13;7.00;99.90
9965;DHT22;5023;53.554;9.964;2023-04-25T03:49:15;6.90;99.90
9965;DHT22;5023;53.554;9.964;2023-04-25T03:54:19;6.90;99.90
9965;DHT22;5023;53.554;9.964;2023-04-25T03:59:21;6.90;99.90
9965;DHT22;5023;53.554;9.964;2023-04-25T04:04:22;6.80;99.90
9965;DHT22;5023;53.554;9.964;2023-04-25T04:09:26;6.90;99.90
9965;DHT22;5023;53.554;9.964;2023-04-25T04:14:28;6.90;99.90
9965;DHT22;5023;53.554;9.964;2023-04-25T04:19:30;6.80;99.90
9965;DHT22;5023;53.554;9.964;2023-04-25T04:24:50;6.80;99.90
9965;DHT22;5023;53.554;9.964;2023-04-25T04:29:52;6.80;99.90
9965;DHT22;5023;53.554;9.964;2023-04-25T04:34:54;6.80;99.90
9965;DHT22;5023;53.554;9.964;2023-04-25T04:39:58;6.80;99.90
9965;DHT22;5023;53.554;9.964;2023-04-25T04:45:00;6.70;99.90
9965;DHT22;5023;53.554;9.964;2023-04-25T04:50:02;6.80;99.90
9965;DHT22;5023;53.554;9.964;2023-04-25T04:55:08;6.80;99.90
9965;DHT22;5023;53.554;9.964;2023-04-25T05:00:11;6.80;99.90
9965;DHT22;5023;53.554;9.964;2023-04-25T05:05:13;6.90;99.90
9965;DHT22;5023;53.554;9.964;2023-04-25T05:10:17;6.80;99.90
9965;DHT22;5023;53.554;9.964;2023-04-25T05:15:19;6.80;99.90
9965;DHT22;5023;53.554;9.964;2023-04-25T05:20:21;6.80;99.90
9965;DHT22;5023;53.554;9.964;2023-04-25T05:25:24;6.70;99.90
9965;DHT22;5023;53.554;9.964;2023-04-25T05:30:26;6.70;99.90
9965;DHT22;5023;53.554;9.964;2023-04-25T05:35:28;6.70;99.90
9965;DHT22;5023;53.554;9.964;2023-04-25T05:40:31;6.80;99.90
9965;DHT22;5023;53.554;9.964;2023-04-25T05:45:33;6.80;99.90
9965;DHT22;5023;53.554;9.964;2023-04-25T05:50:35;6.80;99.90
9965;DHT22;5023;53.554;9.964;2023-04-25T05:55:38;6.80;99.90
9965;DHT22;5023;53.554;9.964;2023-04-25T06:00:40;6.80;99.90
9965;DHT22;5023;53.554;9.964;2023-04-25T06:05:43;6.90;99.90
9965;DHT22;5023;53.554;9.964;2023-04-25T06:10:46;7.00;99.90
9965;DHT22;5023;53.554;9.964;2023-04-25T06:15:48;7.00;99.90
9965;DHT22;5023;53.554;9.964;2023-04-25T06:20:50;7.10;99.90
9965;DHT22;5023;53.554;9.964;2023-04-25T06:25:53;7.00;99.90
9965;DHT22;5023;53.554;9.964;2023-04-25T06:30:55;7.10;99.90
9965;DHT22;5023;53.554;9.964;2023-04-25T06:35:57;7.10;99.90
9965;DHT22;5023;53.554;9.964;2023-04-25T06:41:00;7.00;99.90
9965;DHT22;5023;53.554;9.964;2023-04-25T06:46:03;6.90;99.90
9965;DHT22;5023;53.554;9.964;2023-04-25T06:51:05;6.90;99.90
9965;DHT22;5023;53.554;9.964;2023-04-25T06:56:08;7.20;99.90
9965;DHT22;5023;53.554;9.964;2023-04-25T07:01:10;7.20;99.90
9965;DHT22;5023;53.554;9.964;2023-04-25T07:06:12;7.30;99.90
9965;DHT22;5023;53.554;9.964;2023-04-25T07:11:15;7.60;99.90
9965;DHT22;5023;53.554;9.964;2023-04-25T07:16:17;7.60;99.90
9965;DHT22;5023;53.554;9.964;2023-04-25T07:21:19;7.60;99.90
9965;DHT22;5023;53.554;9.964;2023-04-25T07:26:22;7.70;99.90
9965;DHT22;5023;53.554;9.964;2023-04-25T07:31:25;7.70;99.90
9965;DHT22;5023;53.554;9.964;2023-04-25T07:36:27;7.80;99.90
9965;DHT22;5023;53.554;9.964;2023-04-25T07:41:30;7.90;99.90
9965;DHT22;5023;53.554;9.964;2023-04-25T07:46:32;7.90;99.90
9965;DHT22;5023;53.554;9.964;2023-04-25T07:51:34;7.90;99.90
9965;DHT22;5023;53.554;9.964;2023-04-25T07:56:37;8.10;99.90
9965;DHT22;5023;53.554;9.964;2023-04-25T08:01:39;8.10;99.90
9965;DHT22;5023;53.554;9.964;2023-04-25T08:06:41;8.10;99.90
9965;DHT22;5023;53.554;9.964;2023-04-25T08:11:45;8.30;99.90
9965;DHT22;5023;53.554;9.964;2023-04-25T08:16:47;8.50;99.90
9965;DHT22;5023;53.554;9.964;2023-04-25T08:21:49;8.70;99.90
9965;DHT22;5023;53.554;9.964;2023-04-25T08:26:53;8.80;99.90
9965;DHT22;5023;53.554;9.964;2023-04-25T08:31:55;8.90;99.90
9965;DHT22;5023;53.554;9.964;2023-04-25T08:36:57;9.00;99.90
9965;DHT22;5023;53.554;9.964;2023-04-25T08:42:01;8.90;99.90
9965;DHT22;5023;53.554;9.964;2023-04-25T08:47:04;8.80;99.90
9965;DHT22;5023;53.554;9.964;2023-04-25T08:52:07;8.90;99.90
9965;DHT22;5023;53.554;9.964;2023-04-25T08:57:12;9.20;99.90
9965;DHT22;5023;53.554;9.964;2023-04-25T09:02:17;9.00;99.90
9965;DHT22;5023;53.554;9.964;2023-04-25T09:07:21;8.90;99.90
9965;DHT22;5023;53.554;9.964;2023-04-25T09:12:24;8.90;99.90
9965;DHT22;5023;53.554;9.964;2023-04-25T09:17:27;8.70;99.90
9965;DHT22;5023;53.554;9.964;2023-04-25T09:22:30;8.60;99.90
9965;DHT22;5023;53.554;9.964;2023-04-25T09:27:33;8.60;99.90
9965;DHT22;5023;53.554;9.964;2023-04-25T09:32:35;8.50;99.90
9965;DHT22;5023;53.554;9.964;2023-04-25T09:37:37;8.60;99.90
9965;DHT22;5023;53.554;9.964;2023-04-25T09:42:43;9.00;99.90
9965;DHT22;5023;53.554;9.964;2023-04-25T09:47:45;9.10;99.90
9965;DHT22;5023;53.554;9.964;2023-04-25T09:53:02;8.90;99.90
9965;DHT22;5023;53.554;9.964;2023-04-25T09:58:07;8.90;99.90
9965;DHT22;5023;53.554;9.964;2023-04-25T10:03:11;8.70;99.90
9965;DHT22;5023;53.554;9.964;2023-04-25T10:08:13;8.80;99.90
9965;DHT22;5023;53.554;9.964;2023-04-25T10:13:18;9.00;99.90
9965;DHT22;5023;53.554;9.964;2023-04-25T10:18:21;9.20;99.90
9965;DHT22;5023;53.554;9.964;2023-04-25T10:23:24;9.30;99.90
9965;DHT22;5023;53.554;9.964;2023-04-25T10:28:27;9.50;99.90
9965;DHT22;5023;53.554;9.964;2023-04-25T10:33:32;9.70;99.90
9965;DHT22;5023;53.554;9.964;2023-04-25T10:38:36;9.50;99.90
9965;DHT22;5023;53.554;9.964;2023-04-25T10:43:40;9.70;99.90
9965;DHT22;5023;53.554;9.964;2023-04-25T10:48:47;9.80;99.90
9965;DHT22;5023;53.554;9.964;2023-04-25T10:54:00;10.00;99.90
9965;DHT22;5023;53.554;9.964;2023-04-25T10:59:12;10.20;99.90
9965;DHT22;5023;53.554;9.964;2023-04-25T11:04:22;10.10;99.90
9965;DHT22;5023;53.554;9.964;2023-04-25T11:09:24;10.20;99.90
9965;DHT22;5023;53.554;9.964;2023-04-25T11:14:28;9.80;99.90
9965;DHT22;5023;53.554;9.964;2023-04-25T11:19:30;9.80;99.90
9965;DHT22;5023;53.554;9.964;2023-04-25T11:24:34;9.90;99.90
9965;DHT22;5023;53.554;9.964;2023-04-25T11:29:37;10.30;99.90
9965;DHT22;5023;53.554;9.964;2023-04-25T11:34:42;10.50;99.90
9965;DHT22;5023;53.554;9.964;2023-04-25T11:39:45;10.60;99.90
9965;DHT22;5023;53.554;9.964;2023-04-25T11:44:49;10.10;99.90
9965;DHT22;5023;53.554;9.964;2023-04-25T11:49:53;9.40;99.90
9965;DHT22;5023;53.554;9.964;2023-04-25T11:54:56;9.30;99.90
9965;DHT22;5023;53.554;9.964;2023-04-25T12:00:07;9.20;99.90
9965;DHT22;5023;53.554;9.964;2023-04-25T12:05:13;9.50;99.90
9965;DHT22;5023;53.554;9.964;2023-04-25T12:10:17;9.80;99.90
9965;DHT22;5023;53.554;9.964;2023-04-25T12:15:24;10.30;99.90
9965;DHT22;5023;53.554;9.964;2023-04-25T12:20:26;11.10;99.90
9965;DHT22;5023;53.554;9.964;2023-04-25T12:25:36;11.30;99.90
9965;DHT22;5023;53.554;9.964;2023-04-25T12:30:59;11.10;99.90
9965;DHT22;5023;53.554;9.964;2023-04-25T12:36:03;11.30;98.90
9965;DHT22;5023;53.554;9.964;2023-04-25T12:41:09;12.00;97.10
9965;DHT22;5023;53.554;9.964;2023-04-25T12:46:12;12.10;94.90
9965;DHT22;5023;53.554;9.964;2023-04-25T12:51:14;12.50;92.60
9965;DHT22;5023;53.554;9.964;2023-04-25T12:56:16;12.00;92.40
9965;DHT22;5023;53.554;9.964;2023-04-25T13:01:20;11.40;96.40
9965;DHT22;5023;53.554;9.964;2023-04-25T13:06:22;11.00;99.90
9965;DHT22;5023;53.554;9.964;2023-04-25T13:11:24;11.50;99.90
9965;DHT22;5023;53.554;9.964;2023-04-25T13:16:28;12.10;98.50
9965;DHT22;5023;53.554;9.964;2023-04-25T13:21:30;11.80;95.40
9965;DHT22;5023;53.554;9.964;2023-04-25T13:26:32;10.60;99.90
9965;DHT22;5023;53.554;9.964;2023-04-25T13:31:36;9.90;99.90
9965;DHT22;5023;53.554;9.964;2023-04-25T13:36:38;9.90;99.90
9965;DHT22;5023;53.554;9.964;2023-04-25T13:41:40;10.40;99.90
9965;DHT22;5023;53.554;9.964;2023-04-25T13:46:43;10.90;99.90
9965;DHT22;5023;53.554;9.964;2023-04-25T13:51:46;11.30;99.90
9965;DHT22;5023;53.554;9.964;2023-04-25T13:56:49;10.60;99.90
9965;DHT22;5023;53.554;9.964;2023-04-25T14:01:52;9.60;99.90
9965;DHT22;5023;53.554;9.964;2023-04-25T14:06:54;9.10;99.90
9965;DHT22;5023;53.554;9.964;2023-04-25T14:11:56;8.70;99.90
9965;DHT22;5023;53.554;9.964;2023-04-25T14:16:59;8.50;99.90
9965;DHT22;5023;53.554;9.964;2023-04-25T14:22:01;8.80;99.90
9965;DHT22;5023;53.554;9.964;2023-04-25T14:27:06;9.40;99.90
9965;DHT22;5023;53.554;9.964;2023-04-25T14:32:09;10.50;99.90
9965;DHT22;5023;53.554;9.964;2023-04-25T14:37:12;10.40;99.90
9965;DHT22;5023;53.554;9.964;2023-04-25T14:42:14;10.30;99.90
9965;DHT22;5023;53.554;9.964;2023-04-25T14:47:18;10.60;99.90
9965;DHT22;5023;53.554;9.964;2023-04-25T14:52:21;10.70;99.90
9965;DHT22;5023;53.554;9.964;2023-04-25T14:57:23;10.90;99.90
9965;DHT22;5023;53.554;9.964;2023-04-25T15:02:27;11.00;99.90
9965;DHT22;5023;53.554;9.964;2023-04-25T15:07:29;10.70;99.90
9965;DHT22;5023;53.554;9.964;2023-04-25T15:12:32;10.30;99.90
9965;DHT22;5023;53.554;9.964;2023-04-25T15:17:35;10.20;99.90
9965;DHT22;5023;53.554;9.964;2023-04-25T15:22:39;10.00;99.90
9965;DHT22;5023;53.554;9.964;2023-04-25T15:27:45;9.70;99.90
9965;DHT22;5023;53.554;9.964;2023-04-25T15:32:53;9.60;99.90
9965;DHT22;5023;53.554;9.964;2023-04-25T15:37:55;9.50;99.90
9965;DHT22;5023;53.554;9.964;2023-04-25T15:42:57;9.40;99.90
9965;DHT22;5023;53.554;9.964;2023-04-25T15:48:01;9.70;99.90
9965;DHT22;5023;53.554;9.964;2023-04-25T15:53:03;10.00;99.90
9965;DHT22;5023;53.554;9.964;2023-04-25T15:58:05;10.00;99.90
9965;DHT22;5023;53.554;9.964;2023-04-25T16:03:08;9.90;99.90
9965;DHT22;5023;53.554;9.964;2023-04-25T16:08:10;9.70;99.90
9965;DHT22;5023;53.554;9.964;2023-04-25T16:13:12;9.50;99.90
9965;DHT22;5023;53.554;9.964;2023-04-25T16:18:15;9.40;99.90
9965;DHT22;5023;53.554;9.964;2023-04-25T16:23:17;9.10;99.90
9965;DHT22;5023;53.554;9.964;2023-04-25T16:28:20;9.00;99.90
9965;DHT22;5023;53.554;9.964;2023-04-25T16:33:23;9.00;99.90
9965;DHT22;5023;53.554;9.964;2023-04-25T16:38:28;8.90;99.90
9965;DHT22;5023;53.554;9.964;2023-04-25T16:43:31;8.90;99.90
9965;DHT22;5023;53.554;9.964;2023-04-25T16:48:34;8.80;99.90
9965;DHT22;5023;53.554;9.964;2023-04-25T16:53:39;8.70;99.90
9965;DHT22;5023;53.554;9.964;2023-04-25T16:58:42;8.80;99.90
9965;DHT22;5023;53.554;9.964;2023-04-25T17:03:46;8.80;99.90
9965;DHT22;5023;53.554;9.964;2023-04-25T17:08:48;8.90;99.90
9965;DHT22;5023;53.554;9.964;2023-04-25T17:13:50;8.80;99.90
9965;DHT22;5023;53.554;9.964;2023-04-25T17:18:54;8.80;99.90
9965;DHT22;5023;53.554;9.964;2023-04-25T17:23:57;8.70;99.90
9965;DHT22;5023;53.554;9.964;2023-04-25T17:29:00;8.50;99.90
9965;DHT22;5023;53.554;9.964;2023-04-25T17:34:03;8.40;99.90
9965;DHT22;5023;53.554;9.964;2023-04-25T17:39:05;8.40;99.90
9965;DHT22;5023;53.554;9.964;2023-04-25T17:44:08;8.30;99.90
9965;DHT22;5023;53.554;9.964;2023-04-25T17:49:11;8.20;99.90
9965;DHT22;5023;53.554;9.964;2023-04-25T17:54:16;8.20;99.90
9965;DHT22;5023;53.554;9.964;2023-04-25T17:59:22;8.20;99.90
9965;DHT22;5023;53.554;9.964;2023-04-25T18:04:25;8.10;99.90
9965;DHT22;5023;53.554;9.964;2023-04-25T18:09:27;8.20;99.90
9965;DHT22;5023;53.554;9.964;2023-04-25T18:14:31;8.10;99.90
9965;DHT22;5023;53.554;9.964;2023-04-25T18:19:35;8.00;99.90
9965;DHT22;5023;53.554;9.964;2023-04-25T18:24:37;7.70;99.90
9965;DHT22;5023;53.554;9.964;2023-04-25T18:29:39;7.60;99.90
9965;DHT22;5023;53.554;9.964;2023-04-25T18:34:46;7.50;99.90
9965;DHT22;5023;53.554;9.964;2023-04-25T18:39:49;7.50;99.90
9965;DHT22;5023;53.554;9.964;2023-04-25T18:44:51;7.30;99.90
9965;DHT22;5023;53.554;9.964;2023-04-25T18:49:54;7.20;99.90
9965;DHT22;5023;53.554;9.964;2023-04-25T18:54:56;7.20;99.90
9965;DHT22;5023;53.554;9.964;2023-04-25T18:59:58;7.20;99.90
9965;DHT22;5023;53.554;9.964;2023-04-25T19:05:07;7.20;99.90
9965;DHT22;5023;53.554;9.964;2023-04-25T19:10:10;7.00;99.90
9965;DHT22;5023;53.554;9.964;2023-04-25T19:15:12;7.00;99.90
9965;DHT22;5023;53.554;9.964;2023-04-25T19:20:16;6.90;99.90
9965;DHT22;5023;53.554;9.964;2023-04-25T19:25:20;6.90;99.90
9965;DHT22;5023;53.554;9.964;2023-04-25T19:30:24;6.90;99.90
9965;DHT22;5023;53.554;9.964;2023-04-25T19:35:27;6.90;99.90
9965;DHT22;5023;53.554;9.964;2023-04-25T19:40:32;6.80;99.90
9965;DHT22;5023;53.554;9.964;2023-04-25T19:45:34;6.80;99.90
9965;DHT22;5023;53.554;9.964;2023-04-25T19:50:38;6.80;99.90
9965;DHT22;5023;53.554;9.964;2023-04-25T19:55:40;6.80;99.90
9965;DHT22;5023;53.554;9.964;2023-04-25T20:00:42;6.80;99.90
9965;DHT22;5023;53.554;9.964;2023-04-25T20:05:45;6.70;99.90
9965;DHT22;5023;53.554;9.964;2023-04-25T20:10:47;6.70;99.90
9965;DHT22;5023;53.554;9.964;2023-04-25T20:15:49;6.70;99.90
9965;DHT22;5023;53.554;9.964;2023-04-25T20:20:54;6.50;99.90
9965;DHT22;5023;53.554;9.964;2023-04-25T20:25:56;6.60;99.90
9965;DHT22;5023;53.554;9.964;2023-04-25T20:30:58;6.50;99.90
9965;DHT22;5023;53.554;9.964;2023-04-25T20:36:01;6.50;99.90
9965;DHT22;5023;53.554;9.964;2023-04-25T20:41:04;6.40;99.90
9965;DHT22;5023;53.554;9.964;2023-04-25T20:46:06;6.40;99.90
9965;DHT22;5023;53.554;9.964;2023-04-25T20:51:10;6.40;99.90
9965;DHT22;5023;53.554;9.964;2023-04-25T20:56:12;6.30;99.90
9965;DHT22;5023;53.554;9.964;2023-04-25T21:01:14;6.40;99.90
9965;DHT22;5023;53.554;9.964;2023-04-25T21:06:18;6.30;99.90
9965;DHT22;5023;53.554;9.964;2023-04-25T21:11:20;6.20;99.90
9965;DHT22;5023;53.554;9.964;2023-04-25T21:16:22;6.50;99.90
9965;DHT22;5023;53.554;9.964;2023-04-25T21:21:26;6.20;99.90
9965;DHT22;5023;53.554;9.964;2023-04-25T21:26:28;6.00;99.90
9965;DHT22;5023;53.554;9.964;2023-04-25T21:31:30;6.00;99.90
9965;DHT22;5023;53.554;9.964;2023-04-25T21:36:34;6.00;99.90
9965;DHT22;5023;53.554;9.964;2023-04-25T21:41:36;5.90;99.90
9965;DHT22;5023;53.554;9.964;2023-04-25T21:46:38;5.90;99.90
9965;DHT22;5023;53.554;9.964;2023-04-25T21:51:41;5.90;99.90
9965;DHT22;5023;53.554;9.964;2023-04-25T21:56:44;5.90;99.90
9965;DHT22;5023;53.554;9.964;2023-04-25T22:01:46;5.80;99.90
9965;DHT22;5023;53.554;9.964;2023-04-25T22:06:50;5.70;99.90
9965;DHT22;5023;53.554;9.964;2023-04-25T22:11:52;5.60;99.90
9965;DHT22;5023;53.554;9.964;2023-04-25T22:16:54;5.50;99.90
9965;DHT22;5023;53.554;9.964;2023-04-25T22:21:57;5.30;99.90
9965;DHT22;5023;53.554;9.964;2023-04-25T22:26:59;5.10;99.90
9965;DHT22;5023;53.554;9.964;2023-04-25T22:32:02;5.20;99.90
9965;DHT22;5023;53.554;9.964;2023-04-25T22:37:05;5.20;99.90
9965;DHT22;5023;53.554;9.964;2023-04-25T22:42:07;5.20;99.90
9965;DHT22;5023;53.554;9.964;2023-04-25T22:47:09;5.30;99.90
9965;DHT22;5023;53.554;9.964;2023-04-25T22:52:12;5.30;99.90
9965;DHT22;5023;53.554;9.964;2023-04-25T22:57:14;5.40;99.90
9965;DHT22;5023;53.554;9.964;2023-04-25T23:02:17;5.40;99.90
9965;DHT22;5023;53.554;9.964;2023-04-25T23:07:21;5.30;99.90
9965;DHT22;5023;53.554;9.964;2023-04-25T23:12:23;5.30;99.90
9965;DHT22;5023;53.554;9.964;2023-04-25T23:17:25;5.30;99.90
9965;DHT22;5023;53.554;9.964;2023-04-25T23:22:29;5.30;99.90
9965;DHT22;5023;53.554;9.964;2023-04-25T23:27:30;5.20;99.90
9965;DHT22;5023;53.554;9.964;2023-04-25T23:32:36;5.10;99.90
9965;DHT22;5023;53.554;9.964;2023-04-25T23:37:40;5.10;99.90
9965;DHT22;5023;53.554;9.964;2023-04-25T23:42:41;5.10;99.90
9965;DHT22;5023;53.554;9.964;2023-04-25T23:47:43;5.10;99.90
9965;DHT22;5023;53.554;9.964;2023-04-25T23:52:47;5.20;99.90
9965;DHT22;5023;53.554;9.964;2023-04-25T23:57:49;5.20;99.90
